createdAt,value
2023-08-16T00:04:37.682Z,3.50
2023-08-16T00:09:41.112Z,2.90
2023-08-16T00:14:44.475Z,13.43
2023-08-16T00:19:49.253Z,2.83
2023-08-16T00:24:52.839Z,3.90
2023-08-16T00:29:56.165Z,6.13
2023-08-16T00:35:00.873Z,5.47
2023-08-16T00:40:04.650Z,11.27
2023-08-16T00:45:08.867Z,19.27
2023-08-16T00:50:13.747Z,7.77
2023-08-16T00:55:17.669Z,7.37
2023-08-16T01:00:21.514Z,7.57
2023-08-16T01:05:26.323Z,12.30
2023-08-16T01:10:34.968Z,3.60
2023-08-16T01:15:41.283Z,9.03
2023-08-16T01:20:48.556Z,20.53
2023-08-16T01:25:58.813Z,5.27
2023-08-16T01:31:06.405Z,6.07
2023-08-16T01:36:09.679Z,3.90
2023-08-16T01:41:16.589Z,4.80
2023-08-16T01:46:22.338Z,4.30
2023-08-16T01:51:26.005Z,3.43
2023-08-16T01:56:29.557Z,3.87
2023-08-16T02:01:34.276Z,3.30
2023-08-16T02:06:37.608Z,7.77
2023-08-16T02:11:40.995Z,4.90
2023-08-16T02:16:45.761Z,3.80
2023-08-16T02:21:49.358Z,3.67
2023-08-16T02:26:54.547Z,3.67
2023-08-16T02:31:59.228Z,5.17
2023-08-16T02:37:02.533Z,5.40
2023-08-16T02:42:06.089Z,3.63
2023-08-16T02:47:10.735Z,3.50
2023-08-16T02:52:14.094Z,3.50
2023-08-16T02:57:19.628Z,3.30
2023-08-16T03:02:26.421Z,3.03
2023-08-16T03:07:29.760Z,4.00
2023-08-16T03:12:33.130Z,3.17
2023-08-16T03:17:38.248Z,4.13
2023-08-16T03:22:42.632Z,6.50
2023-08-16T03:27:46.106Z,3.40
2023-08-16T03:32:54.272Z,12.80
2023-08-16T03:37:59.278Z,10.50
2023-08-16T03:43:03.185Z,2.93
2023-08-16T03:48:08.317Z,8.27
2023-08-16T03:53:12.537Z,2.73
2023-08-16T03:58:16.090Z,3.90
2023-08-16T04:03:21.010Z,2.40
2023-08-16T04:08:24.472Z,76.23
2023-08-16T04:13:27.785Z,89.10
2023-08-16T04:18:32.736Z,79.40
2023-08-16T04:23:36.103Z,60.47
2023-08-16T04:28:39.396Z,44.97
2023-08-16T04:33:44.120Z,12.63
2023-08-16T04:38:47.535Z,44.27
2023-08-16T04:43:50.816Z,21.73
2023-08-16T04:48:56.020Z,29.37
2023-08-16T04:53:59.543Z,32.70
2023-08-16T04:59:02.961Z,30.33
2023-08-16T05:04:10.112Z,15.90
2023-08-16T05:09:13.872Z,16.63
2023-08-16T05:14:17.759Z,34.93
2023-08-16T05:19:22.572Z,6.07
2023-08-16T05:24:26.823Z,15.63
2023-08-16T05:29:30.214Z,4.70
2023-08-16T05:34:35.154Z,7.03
2023-08-16T05:39:40.266Z,3.20
2023-08-16T05:44:45.759Z,6.80
2023-08-16T05:49:50.640Z,10.13
2023-08-16T05:54:53.937Z,6.83
2023-08-16T05:59:57.154Z,4.50
2023-08-16T06:05:02.027Z,4.60
2023-08-16T06:10:06.212Z,4.70
2023-08-16T06:15:12.654Z,5.33
2023-08-16T06:20:17.960Z,5.13
2023-08-16T06:25:21.588Z,6.30
2023-08-16T06:30:25.137Z,37.07
2023-08-16T06:35:30.874Z,37.57
2023-08-16T06:40:34.749Z,24.77
2023-08-16T06:45:38.078Z,7.67
2023-08-16T06:50:42.858Z,7.83
2023-08-16T06:55:47.153Z,9.63
2023-08-16T07:00:51.192Z,23.80
2023-08-16T07:05:55.844Z,12.50
2023-08-16T07:10:59.216Z,7.97
2023-08-16T07:16:02.640Z,7.20
2023-08-16T07:21:07.294Z,8.57
2023-08-16T07:26:10.647Z,6.90
2023-08-16T07:31:13.906Z,7.20
2023-08-16T07:36:18.628Z,8.03
2023-08-16T07:41:21.930Z,6.10
2023-08-16T07:46:25.303Z,7.57
2023-08-16T07:51:30.738Z,6.30
2023-08-16T07:56:34.093Z,6.50
2023-08-16T08:01:37.371Z,6.97
2023-08-16T08:06:42.666Z,7.30
2023-08-16T08:11:46.008Z,6.40
2023-08-16T08:16:49.336Z,7.43
2023-08-16T08:21:54.118Z,6.50
2023-08-16T08:26:58.704Z,7.43
2023-08-16T08:32:02.436Z,6.27
2023-08-16T08:37:08.175Z,6.47
2023-08-16T08:42:11.724Z,7.90
2023-08-16T08:47:17.334Z,6.10
2023-08-16T08:52:23.007Z,5.70
2023-08-16T08:57:27.307Z,5.53
2023-08-16T09:02:34.906Z,6.40
2023-08-16T09:07:41.411Z,6.30
2023-08-16T09:12:45.136Z,6.80
2023-08-16T09:17:51.588Z,5.90
2023-08-16T09:22:56.511Z,29.47
2023-08-16T09:28:01.808Z,7.30
2023-08-16T09:33:06.046Z,5.97
2023-08-16T09:43:17.877Z,6.57
2023-08-16T09:48:22.901Z,7.57
2023-08-16T09:58:34.169Z,7.87
2023-08-16T10:03:37.699Z,8.23
2023-08-16T10:08:42.381Z,7.70
2023-08-16T10:13:46.335Z,8.87
2023-08-16T10:18:50.113Z,8.00
2023-08-16T10:23:56.652Z,9.10
2023-08-16T10:29:02.542Z,9.30
2023-08-16T10:34:08.974Z,11.03
2023-08-16T10:39:22.485Z,15.17
2023-08-16T10:44:26.613Z,15.10
2023-08-16T10:49:39.394Z,14.83
2023-08-16T10:54:44.209Z,16.10
2023-08-16T10:59:48.507Z,15.37
2023-08-16T11:04:52.299Z,16.40
2023-08-16T11:10:00.617Z,14.97
2023-08-16T11:15:05.097Z,12.87
2023-08-16T11:20:11.244Z,14.73
2023-08-16T11:25:15.993Z,13.77
2023-08-16T11:30:20.121Z,13.87
2023-08-16T11:35:25.031Z,17.80
2023-08-16T11:40:29.721Z,12.70
2023-08-16T11:45:33.085Z,10.97
2023-08-16T11:50:36.834Z,20.20
2023-08-16T11:55:43.134Z,17.53
2023-08-16T12:00:46.554Z,12.30
2023-08-16T12:05:50.928Z,11.60
2023-08-16T12:10:56.269Z,12.97
2023-08-16T12:15:59.716Z,16.00
2023-08-16T12:21:02.897Z,13.83
2023-08-16T12:26:08.618Z,11.57
2023-08-16T12:31:13.428Z,11.77
2023-08-16T12:36:16.617Z,12.53
2023-08-16T12:41:21.259Z,11.70
2023-08-16T12:46:24.522Z,13.93
2023-08-16T12:51:28.051Z,11.77
2023-08-16T12:56:33.239Z,11.40
2023-08-16T13:01:42.261Z,13.37
2023-08-16T13:11:57.144Z,11.20
2023-08-16T13:22:17.047Z,12.00
2023-08-16T13:27:40.761Z,13.40
2023-08-16T13:32:46.523Z,11.50
2023-08-16T13:37:58.332Z,12.93
2023-08-16T13:48:10.267Z,10.47
2023-08-16T13:53:13.777Z,8.57
2023-08-16T13:58:19.736Z,7.90
2023-08-16T14:03:23.475Z,8.30
2023-08-16T14:08:27.411Z,9.00
2023-08-16T14:13:32.521Z,8.77
2023-08-16T14:18:38.038Z,9.17
2023-08-16T14:23:41.210Z,7.70
2023-08-16T14:28:46.028Z,13.10
2023-08-16T14:33:49.291Z,7.70
2023-08-16T14:38:59.863Z,7.37
2023-08-16T14:44:06.255Z,7.40
2023-08-16T14:49:09.761Z,13.93
2023-08-16T14:54:13.313Z,8.13
2023-08-16T14:59:18.326Z,6.13
2023-08-16T15:04:22.352Z,6.07
2023-08-16T15:09:26.673Z,6.77
2023-08-16T15:14:31.516Z,6.40
2023-08-16T15:19:41.569Z,6.93
2023-08-16T15:24:44.854Z,7.70
2023-08-16T15:29:49.574Z,5.97
2023-08-16T15:34:53.515Z,5.60
2023-08-16T15:39:56.661Z,7.23
2023-08-16T15:45:01.403Z,6.40
2023-08-16T15:50:04.948Z,6.00
2023-08-16T15:55:09.436Z,5.80
2023-08-16T16:00:15.965Z,5.90
2023-08-16T16:05:20.102Z,6.37
2023-08-16T16:10:24.164Z,5.70
2023-08-16T16:15:29.440Z,10.20
2023-08-16T16:20:33.055Z,6.10
2023-08-16T16:25:36.487Z,5.57
2023-08-16T16:30:41.198Z,5.47
2023-08-16T16:35:44.697Z,6.70
2023-08-16T16:40:48.428Z,6.20
2023-08-16T16:45:53.128Z,6.50
2023-08-16T16:50:56.925Z,6.67
2023-08-16T16:56:00.241Z,6.90
2023-08-16T17:01:05.607Z,9.10
2023-08-16T17:06:08.970Z,6.33
2023-08-16T17:11:12.405Z,7.27
2023-08-16T17:16:17.215Z,7.20
2023-08-16T17:21:20.501Z,6.80
2023-08-16T17:26:23.961Z,6.77
2023-08-16T17:31:28.724Z,11.53
2023-08-16T17:36:32.521Z,6.97
2023-08-16T17:41:35.793Z,7.47
2023-08-16T17:46:40.578Z,8.30
2023-08-16T17:51:44.163Z,7.20
2023-08-16T17:56:47.320Z,7.70
2023-08-16T18:01:54.563Z,7.47
2023-08-16T18:06:59.594Z,7.20
2023-08-16T18:12:02.891Z,10.67
2023-08-16T18:17:07.636Z,6.70
2023-08-16T18:22:10.919Z,6.70
2023-08-16T18:27:14.154Z,7.27
2023-08-16T18:32:19.099Z,6.83
2023-08-16T18:37:22.519Z,7.50
2023-08-16T18:42:25.877Z,6.80
2023-08-16T18:47:30.566Z,7.20
2023-08-16T18:52:33.753Z,6.40
2023-08-16T18:57:37.222Z,10.17
2023-08-16T19:02:41.937Z,7.77
2023-08-16T19:07:45.239Z,7.20
2023-08-16T19:12:48.528Z,7.37
2023-08-16T19:17:54.364Z,6.90
2023-08-16T19:22:58.171Z,8.07
2023-08-16T19:28:01.545Z,14.00
2023-08-16T19:33:06.947Z,7.40
2023-08-16T19:38:10.382Z,7.53
2023-08-16T19:43:13.603Z,8.47
2023-08-16T19:48:18.384Z,8.07
2023-08-16T19:53:22.078Z,11.10
2023-08-16T19:58:25.910Z,8.53
2023-08-16T20:03:30.725Z,9.80
2023-08-16T20:08:34.096Z,8.30
2023-08-16T20:13:37.353Z,8.43
2023-08-16T20:18:42.237Z,8.70
2023-08-16T20:23:45.656Z,9.10
2023-08-16T20:28:48.921Z,9.07
2023-08-16T20:33:53.715Z,8.40
2023-08-16T20:38:57.272Z,8.83
2023-08-16T20:44:00.550Z,9.13
2023-08-16T20:49:10.286Z,10.73
2023-08-16T20:54:14.623Z,8.53
2023-08-16T20:59:18.280Z,9.53
2023-08-16T21:04:23.161Z,9.00
2023-08-16T21:09:26.840Z,8.60
2023-08-16T21:14:30.559Z,10.47
2023-08-16T21:19:37.438Z,8.10
2023-08-16T21:24:40.993Z,9.27
2023-08-16T21:29:44.354Z,8.63
2023-08-16T21:34:49.079Z,10.83
2023-08-16T21:39:52.646Z,8.17
2023-08-16T21:44:56.054Z,8.33
2023-08-16T21:50:00.843Z,13.27
2023-08-16T21:55:04.324Z,11.47
2023-08-16T22:00:09.563Z,9.70
2023-08-16T22:05:14.219Z,9.03
2023-08-16T22:10:18.516Z,12.57
2023-08-16T22:15:24.705Z,8.97
2023-08-16T22:20:29.401Z,10.30
2023-08-16T22:25:32.757Z,10.90
2023-08-16T22:30:36.093Z,10.13
2023-08-16T22:35:40.811Z,12.30
2023-08-16T22:40:44.198Z,9.60
2023-08-16T22:45:47.594Z,8.20
2023-08-16T22:50:52.351Z,9.73
2023-08-16T22:55:55.732Z,14.87
2023-08-16T23:00:59.146Z,9.60
2023-08-16T23:06:04.135Z,4.40
2023-08-16T23:11:08.081Z,3.67
2023-08-16T23:16:11.396Z,2.20
2023-08-16T23:21:16.177Z,9.50
2023-08-16T23:26:19.446Z,4.83
2023-08-16T23:31:22.741Z,2.87
2023-08-16T23:36:27.527Z,5.30
2023-08-16T23:42:14.449Z,3.67
2023-08-16T23:54:25.777Z,6.50
